createdAt,value
2023-04-14T00:05:50.949Z,113.20
2023-04-14T00:15:54.427Z,112.77
2023-04-14T00:25:59.262Z,114.23
2023-04-14T00:36:02.687Z,110.53
2023-04-14T00:46:07.973Z,113.67
2023-04-14T00:56:11.630Z,115.20
2023-04-14T01:06:16.844Z,106.37
2023-04-14T01:16:33.458Z,112.07
2023-04-14T01:26:39.683Z,111.00
2023-04-14T01:36:50.491Z,107.70
2023-04-14T01:47:02.505Z,109.43
2023-04-14T01:57:09.474Z,106.93
2023-04-14T02:07:14.667Z,111.53
2023-04-14T02:17:21.679Z,107.53
2023-04-14T02:27:33.034Z,113.47
2023-04-14T02:37:43.199Z,108.10
2023-04-14T02:47:52.212Z,109.97
2023-04-14T02:57:57.844Z,107.90
2023-04-14T03:08:02.011Z,109.90
2023-04-14T03:18:08.248Z,113.03
2023-04-14T03:28:16.004Z,106.30
2023-04-14T03:38:26.381Z,113.50
2023-04-14T03:48:34.414Z,106.23
2023-04-14T03:58:40.439Z,110.40
2023-04-14T04:08:44.951Z,98.40
2023-04-14T04:18:51.639Z,105.30
2023-04-14T04:29:01.653Z,106.00
2023-04-14T04:39:07.413Z,106.77
2023-04-14T04:49:15.907Z,107.93
2023-04-14T04:59:21.291Z,109.30
2023-04-14T05:09:24.650Z,109.00
2023-04-14T05:19:29.452Z,105.87
2023-04-14T05:29:32.833Z,107.57
2023-04-14T05:39:37.694Z,102.93
2023-04-14T05:49:41.071Z,103.90
2023-04-14T05:59:45.853Z,101.50
2023-04-14T06:09:49.231Z,103.00
2023-04-14T06:19:54.049Z,107.93
2023-04-14T06:30:00.015Z,106.30
2023-04-14T06:40:05.442Z,111.50
2023-04-14T06:50:09.706Z,107.00
2023-04-14T07:00:16.204Z,109.93
2023-04-14T07:10:19.885Z,110.53
2023-04-14T07:20:24.940Z,112.77
2023-04-14T07:30:28.360Z,112.80
2023-04-14T07:40:33.220Z,101.53
2023-04-14T07:50:36.684Z,110.23
2023-04-14T08:00:41.386Z,114.23
2023-04-14T08:10:44.860Z,118.10
2023-04-14T08:20:49.646Z,119.57
2023-04-14T08:30:53.152Z,114.47
2023-04-14T08:40:58.554Z,114.40
2023-04-14T08:51:15.674Z,152.20
2023-04-14T09:01:20.892Z,107.57
2023-04-14T09:11:24.559Z,109.10
2023-04-14T09:21:49.920Z,108.80
2023-04-14T09:31:53.366Z,99.90
2023-04-14T09:41:58.101Z,98.13
2023-04-14T09:52:09.050Z,99.60
2023-04-14T10:02:13.937Z,103.37
2023-04-14T10:12:18.576Z,102.93
2023-04-14T10:22:27.665Z,101.57
2023-04-14T10:32:35.481Z,106.83
2023-04-14T10:42:55.922Z,97.10
2023-04-14T10:52:59.851Z,98.10
2023-04-14T11:03:10.770Z,98.37
2023-04-14T11:13:16.545Z,104.53
2023-04-14T11:23:29.739Z,96.77
2023-04-14T11:33:35.896Z,115.63
2023-04-14T11:43:46.581Z,112.80
2023-04-14T11:53:50.075Z,108.97
2023-04-14T12:03:55.412Z,105.53
2023-04-14T12:13:59.311Z,105.13
2023-04-14T12:24:04.053Z,107.80
2023-04-14T12:34:07.506Z,110.17
2023-04-14T12:44:19.789Z,145.57
2023-04-14T12:54:23.266Z,101.47
2023-04-14T13:04:28.035Z,105.63
2023-04-14T13:14:31.744Z,99.63
2023-04-14T13:24:36.899Z,101.17
2023-04-14T13:34:41.213Z,105.37
2023-04-14T13:44:46.228Z,106.00
2023-04-14T13:54:49.585Z,98.40
2023-04-14T14:04:54.310Z,98.60
2023-04-14T14:14:57.647Z,92.63
2023-04-14T14:25:17.495Z,94.40
2023-04-14T14:35:22.454Z,95.50
2023-04-14T14:45:30.850Z,100.00
2023-04-14T14:55:35.109Z,94.07
2023-04-14T15:05:40.845Z,110.43
2023-04-14T15:15:44.499Z,102.37
2023-04-14T15:25:49.433Z,100.30
2023-04-14T15:35:52.819Z,94.03
2023-04-14T15:45:57.726Z,93.23
2023-04-14T15:56:01.163Z,96.13
2023-04-14T16:06:07.560Z,94.50
2023-04-14T16:16:10.925Z,107.07
2023-04-14T16:26:16.958Z,102.70
2023-04-14T16:36:21.787Z,91.70
2023-04-14T16:46:26.798Z,103.27
2023-04-14T16:56:30.675Z,102.07
2023-04-14T17:06:35.396Z,94.43
2023-04-14T17:16:39.691Z,94.57
2023-04-14T17:26:45.847Z,95.77
2023-04-14T17:36:50.090Z,94.27
2023-04-14T17:46:55.124Z,96.47
2023-04-14T17:56:58.491Z,99.00
2023-04-14T18:07:03.343Z,93.50
2023-04-14T18:17:07.115Z,93.70
2023-04-14T18:37:19.125Z,97.33
2023-04-14T18:47:24.187Z,96.47
2023-04-14T18:57:29.147Z,91.67
2023-04-14T19:07:34.065Z,99.20
2023-04-14T19:17:37.717Z,95.13
2023-04-14T19:27:43.309Z,90.47
2023-04-14T19:37:47.085Z,91.47
2023-04-14T19:47:52.127Z,98.73
2023-04-14T19:57:56.229Z,89.37
2023-04-14T20:08:01.060Z,90.77
2023-04-14T20:18:04.810Z,92.40
2023-04-14T20:28:10.020Z,96.30
2023-04-14T20:38:15.303Z,90.70
2023-04-14T20:48:20.600Z,86.20
2023-04-14T20:58:24.010Z,91.60
2023-04-14T21:08:29.856Z,98.20
2023-04-14T21:18:33.262Z,88.40
2023-04-14T21:28:38.169Z,93.00
2023-04-14T21:38:41.732Z,97.60
2023-04-14T21:48:46.833Z,88.00
2023-04-14T21:58:50.335Z,85.00
2023-04-14T22:08:55.339Z,87.23
2023-04-14T22:18:58.836Z,84.40
2023-04-14T22:29:04.270Z,85.47
2023-04-14T22:39:08.277Z,88.03
2023-04-14T22:49:13.128Z,86.10
2023-04-14T22:59:17.456Z,91.50
2023-04-14T23:09:22.466Z,85.20
2023-04-14T23:19:25.910Z,85.33
2023-04-14T23:29:30.876Z,83.47
2023-04-14T23:39:34.457Z,86.30
2023-04-14T23:49:39.193Z,84.20
2023-04-14T23:59:43.171Z,83.70
